Time;durP1;ratioP1;P1;durP2;ratioP2;P2;SDS_P1;SDS_P2;PMS_P1;PMS_P2;Temp;Humidity;BMP_temperature;BMP_pressure;BME280_temperature;BME280_humidity;BME280_pressure;Samples;Min_cycle;Max_cycle;Signal;HPM_P1;HPM_P2
2022/07/26 00:03:39;;;;;;;10.15;4.50;;;17.80;98.70;;;;;;10008984;29;20482;-82
2022/07/26 00:08:39;;;;;;;7.68;4.80;;;17.80;99.90;;;;;;10007417;29;20041;-82
2022/07/26 00:13:40;;;;;;;7.95;5.32;;;17.70;99.90;;;;;;10009943;29;20056;-82
2022/07/26 00:18:41;;;;;;;12.68;6.55;;;17.60;99.90;;;;;;10009091;29;20045;-82
2022/07/26 00:23:42;;;;;;;8.75;6.32;;;17.60;99.90;;;;;;10009548;29;20125;-82
2022/07/26 00:28:42;;;;;;;10.35;6.72;;;17.50;99.90;;;;;;10005696;29;20042;-81
2022/07/26 00:33:43;;;;;;;10.38;7.15;;;17.50;99.90;;;;;;10008586;29;20022;-82
2022/07/26 00:38:44;;;;;;;10.07;7.35;;;17.50;99.90;;;;;;10009622;29;20042;-82
2022/07/26 00:43:58;;;;;;;13.73;7.70;;;17.40;99.90;;;;;;10009066;29;20064;-81
2022/07/26 00:48:59;;;;;;;12.60;7.97;;;17.50;99.90;;;;;;10009261;29;20042;-81
2022/07/26 00:54:00;;;;;;;10.00;7.78;;;17.40;99.90;;;;;;10010052;29;20592;-82
2022/07/26 00:59:00;;;;;;;11.25;8.25;;;17.40;99.90;;;;;;9997466;29;20097;-82
2022/07/26 01:04:01;;;;;;;13.23;8.63;;;17.40;99.90;;;;;;10011089;29;20049;-81
2022/07/26 01:09:04;;;;;;;12.75;7.95;;;17.30;99.90;;;;;;10016293;29;20026;-81
2022/07/26 01:14:04;;;;;;;13.95;8.10;;;17.30;99.90;;;;;;10007251;29;20058;-82
2022/07/26 01:19:05;;;;;;;10.68;7.20;;;17.40;99.90;;;;;;10015832;29;20098;-82
2022/07/26 01:24:06;;;;;;;8.75;5.85;;;17.30;99.90;;;;;;10014991;29;20048;-82
2022/07/26 01:29:06;;;;;;;6.30;4.72;;;17.30;99.90;;;;;;10008900;29;20078;-81
2022/07/26 01:34:07;;;;;;;7.65;4.80;;;17.30;99.90;;;;;;10010181;29;20038;-81
2022/07/26 01:39:08;;;;;;;7.68;4.95;;;17.30;99.90;;;;;;10009808;29;20045;-80
2022/07/26 01:44:09;;;;;;;6.82;4.25;;;17.30;99.90;;;;;;10008947;29;20498;-81
2022/07/26 01:49:12;;;;;;;4.50;3.78;;;17.30;99.90;;;;;;10008346;29;20061;-82
2022/07/26 01:54:13;;;;;;;5.55;4.35;;;17.30;99.90;;;;;;9993198;29;20049;-82
2022/07/26 01:59:14;;;;;;;6.18;4.13;;;17.30;99.90;;;;;;10010183;29;20088;-81
2022/07/26 02:09:34;;;;;;;5.03;3.83;;;17.20;99.90;;;;;;10009145;29;20041;-81
2022/07/26 02:14:35;;;;;;;5.78;4.30;;;17.20;99.90;;;;;;10009432;29;20042;-82
2022/07/26 02:19:36;;;;;;;6.05;4.00;;;17.20;99.90;;;;;;10010940;29;20042;-81
2022/07/26 02:24:37;;;;;;;7.40;4.53;;;17.20;99.90;;;;;;10010064;29;20515;-81
2022/07/26 02:29:38;;;;;;;7.80;4.38;;;17.20;99.90;;;;;;10010017;29;20446;-82
2022/07/26 02:34:39;;;;;;;8.13;4.68;;;17.10;99.90;;;;;;10009683;29;20033;-82
2022/07/26 02:39:40;;;;;;;7.63;5.53;;;17.10;99.90;;;;;;10009043;29;20291;-81
2022/07/26 02:44:41;;;;;;;9.80;6.65;;;17.10;99.90;;;;;;10013367;29;20589;-82
2022/07/26 02:49:41;;;;;;;7.68;6.05;;;17.10;99.90;;;;;;9995952;29;20042;-82
2022/07/26 02:54:42;;;;;;;9.02;6.85;;;17.10;99.90;;;;;;10010215;29;20497;-83
2022/07/26 02:59:42;;;;;;;13.30;6.75;;;17.10;99.90;;;;;;10008958;29;20050;-81
2022/07/26 03:04:43;;;;;;;13.02;8.25;;;17.10;99.90;;;;;;10007355;29;20042;-82
2022/07/26 03:09:44;;;;;;;14.77;9.70;;;17.20;99.90;;;;;;10009640;29;20042;-81
2022/07/26 03:14:44;;;;;;;11.52;8.00;;;17.20;99.90;;;;;;10010679;29;20045;-82
2022/07/26 03:19:45;;;;;;;8.43;6.22;;;17.10;99.90;;;;;;10006657;29;20057;-83
2022/07/26 03:24:45;;;;;;;9.05;6.43;;;17.20;99.90;;;;;;10004268;29;20060;-82
2022/07/26 03:29:46;;;;;;;8.45;5.55;;;17.40;99.90;;;;;;10009251;29;20034;-82
2022/07/26 03:34:46;;;;;;;7.47;5.50;;;17.40;99.90;;;;;;10007562;29;20034;-81
2022/07/26 03:39:47;;;;;;;10.00;6.53;;;17.60;99.90;;;;;;10005516;29;20046;-83
2022/07/26 03:44:48;;;;;;;8.23;5.88;;;17.70;99.90;;;;;;10009127;29;20507;-82
2022/07/26 03:49:48;;;;;;;7.50;5.78;;;17.70;99.90;;;;;;10010021;29;20025;-81
2022/07/26 03:54:49;;;;;;;8.20;5.30;;;17.80;99.90;;;;;;10009691;29;20426;-80
2022/07/26 03:59:50;;;;;;;6.20;4.82;;;17.90;99.90;;;;;;10002280;29;20472;-83
2022/07/26 04:04:50;;;;;;;8.68;4.82;;;18.10;99.90;;;;;;9994451;29;20066;-84
2022/07/26 04:09:51;;;;;;;7.65;5.43;;;18.30;99.90;;;;;;10008084;29;20041;-84
2022/07/26 04:14:51;;;;;;;5.93;4.65;;;18.50;99.90;;;;;;10010618;29;20460;-83
2022/07/26 04:19:52;;;;;;;9.15;5.53;;;18.70;99.90;;;;;;10010421;29;20038;-84
2022/07/26 04:24:52;;;;;;;10.70;5.75;;;18.80;99.90;;;;;;10005932;29;20522;-81
2022/07/26 04:29:53;;;;;;;8.48;5.65;;;18.90;99.90;;;;;;10010504;29;20569;-82
2022/07/26 04:34:54;;;;;;;9.18;5.57;;;19.00;99.90;;;;;;10014512;29;20052;-84
2022/07/26 04:39:54;;;;;;;7.35;5.35;;;19.10;99.90;;;;;;10017082;29;20046;-83
2022/07/26 04:44:55;;;;;;;7.28;5.00;;;19.20;99.90;;;;;;10018242;29;20054;-82
2022/07/26 04:49:55;;;;;;;12.80;5.57;;;19.30;99.90;;;;;;10016605;29;20045;-84
2022/07/26 04:54:56;;;;;;;10.30;5.78;;;19.30;99.90;;;;;;10019162;29;20033;-82
2022/07/26 04:59:57;;;;;;;9.70;6.07;;;19.40;99.90;;;;;;10018525;29;20042;-82
2022/07/26 05:04:57;;;;;;;9.35;7.15;;;19.60;99.90;;;;;;10017748;29;20066;-86
2022/07/26 05:09:58;;;;;;;11.90;6.43;;;20.00;99.90;;;;;;10018265;29;20030;-83
2022/07/26 05:14:58;;;;;;;15.95;6.53;;;20.50;99.90;;;;;;10017746;29;20030;-83
2022/07/26 05:19:59;;;;;;;11.40;6.53;;;20.90;99.90;;;;;;10017693;29;20046;-84
2022/07/26 05:25:00;;;;;;;8.40;6.10;;;21.10;99.90;;;;;;10016441;29;20064;-82
2022/07/26 05:30:01;;;;;;;9.30;6.40;;;21.20;99.90;;;;;;10016951;29;20042;-84
2022/07/26 05:35:01;;;;;;;13.60;5.68;;;21.50;99.90;;;;;;10016874;29;20387;-84
2022/07/26 05:40:06;;;;;;;11.25;5.90;;;21.70;99.90;;;;;;9999093;29;20041;-85
2022/07/26 05:45:07;;;;;;;8.90;6.28;;;21.90;99.90;;;;;;10015506;29;20149;-82
2022/07/26 05:50:08;;;;;;;11.88;5.80;;;22.00;99.90;;;;;;10015388;29;20027;-85
2022/07/26 05:55:14;;;;;;;13.15;6.88;;;22.00;99.90;;;;;;10015135;29;20526;-82
2022/07/26 06:00:16;;;;;;;14.73;7.40;;;22.20;99.70;;;;;;9997718;29;20034;-83
2022/07/26 06:05:17;;;;;;;14.50;7.45;;;22.30;99.90;;;;;;9993918;29;20030;-85
2022/07/26 06:10:17;;;;;;;12.85;7.50;;;22.60;99.70;;;;;;10012222;29;20037;-83
2022/07/26 06:15:18;;;;;;;17.67;7.85;;;22.80;99.60;;;;;;9995770;29;20029;-82
2022/07/26 06:20:42;;;;;;;14.02;7.00;;;23.00;98.00;;;;;;10013261;29;20038;-82
2022/07/26 06:25:43;;;;;;;14.25;7.32;;;23.20;97.40;;;;;;10009119;29;20060;-84
2022/07/26 06:30:44;;;;;;;9.65;7.70;;;23.30;97.10;;;;;;9997420;29;20028;-83
2022/07/26 06:35:44;;;;;;;14.07;7.25;;;23.40;97.60;;;;;;9997221;29;20042;-82
2022/07/26 06:40:45;;;;;;;9.90;7.90;;;23.50;97.50;;;;;;10013052;29;20042;-88
2022/07/26 06:45:45;;;;;;;13.40;8.43;;;23.60;96.40;;;;;;10013614;29;20054;-82
2022/07/26 06:50:46;;;;;;;14.13;9.23;;;23.70;96.70;;;;;;10012308;29;20028;-83
2022/07/26 06:55:47;;;;;;;11.23;8.90;;;23.90;99.10;;;;;;10013130;29;20457;-82
2022/07/26 07:00:47;;;;;;;12.25;8.77;;;24.10;99.90;;;;;;10013056;29;20078;-82
2022/07/26 07:05:48;;;;;;;11.45;8.88;;;24.20;99.90;;;;;;10012154;29;20497;-82
2022/07/26 07:10:48;;;;;;;10.55;8.63;;;24.40;99.90;;;;;;10010692;29;20068;-82
2022/07/26 07:15:49;;;;;;;12.85;9.43;;;24.50;99.90;;;;;;10010372;29;20030;-82
2022/07/26 07:20:49;;;;;;;14.65;9.48;;;24.60;99.70;;;;;;10011885;29;20034;-82
2022/07/26 07:25:50;;;;;;;13.80;10.27;;;24.90;97.20;;;;;;10012415;29;20038;-83
2022/07/26 07:30:51;;;;;;;13.35;9.77;;;25.40;96.20;;;;;;10008481;29;20041;-82
2022/07/26 07:35:52;;;;;;;15.32;10.85;;;25.90;93.00;;;;;;10013294;29;20034;-85
2022/07/26 07:40:53;;;;;;;15.20;11.00;;;25.60;92.60;;;;;;10012277;29;20089;-85
2022/07/26 07:45:53;;;;;;;12.90;10.50;;;24.90;93.30;;;;;;10010211;29;20065;-86
2022/07/26 07:50:54;;;;;;;15.18;12.15;;;24.30;95.00;;;;;;10010055;29;20034;-84
2022/07/26 07:55:54;;;;;;;15.98;11.43;;;24.20;95.80;;;;;;10010140;29;20030;-83
2022/07/26 08:00:55;;;;;;;16.08;12.82;;;23.60;96.80;;;;;;10009985;29;20153;-84
2022/07/26 08:05:55;;;;;;;15.20;11.85;;;22.90;98.20;;;;;;10010496;29;20555;-82
2022/07/26 08:10:56;;;;;;;17.30;13.18;;;22.00;99.90;;;;;;10011543;29;20487;-83
2022/07/26 08:15:57;;;;;;;15.75;12.27;;;21.50;99.90;;;;;;10010803;29;20042;-82
2022/07/26 08:20:58;;;;;;;19.20;13.98;;;21.20;99.90;;;;;;10011270;29;20044;-82
2022/07/26 08:25:58;;;;;;;15.63;10.63;;;20.70;99.90;;;;;;9994621;29;20041;-82
2022/07/26 08:30:59;;;;;;;21.52;15.52;;;20.10;99.90;;;;;;10010634;29;20405;-82
2022/07/26 08:35:59;;;;;;;20.83;15.85;;;19.60;99.90;;;;;;10011091;29;20046;-84
2022/07/26 08:41:00;;;;;;;24.80;17.67;;;19.30;99.90;;;;;;10010775;29;20041;-83
2022/07/26 08:46:01;;;;;;;27.70;19.92;;;19.20;99.90;;;;;;10010723;29;20480;-82
2022/07/26 08:51:07;;;;;;;31.05;21.90;;;19.10;99.90;;;;;;10010471;29;20045;-82
2022/07/26 08:56:08;;;;;;;30.10;21.00;;;19.10;99.90;;;;;;10010652;29;20033;-82
2022/07/26 09:01:11;;;;;;;27.27;18.85;;;19.10;99.90;;;;;;10011298;29;20573;-83
2022/07/26 09:06:20;;;;;;;27.95;19.25;;;19.30;99.90;;;;;;10010479;29;20037;-81
2022/07/26 09:11:24;;;;;;;27.08;19.10;;;19.30;99.90;;;;;;10010672;29;20125;-82
2022/07/26 09:16:24;;;;;;;31.52;22.38;;;19.30;99.90;;;;;;10016012;29;20036;-82
2022/07/26 09:21:35;;;;;;;26.98;19.13;;;19.40;99.90;;;;;;10017785;29;20037;-82
2022/07/26 09:26:35;;;;;;;26.48;19.70;;;19.50;99.90;;;;;;10016762;29;20034;-83
2022/07/26 09:31:37;;;;;;;25.92;17.83;;;19.50;99.90;;;;;;10016532;29;20045;-83
2022/07/26 09:36:53;;;;;;;27.02;19.05;;;19.70;99.90;;;;;;10015875;29;20030;-83
2022/07/26 09:41:53;;;;;;;;;;;19.80;99.90;;;;;;10016750;29;20041;-83
2022/07/26 09:46:56;;;;;;;23.95;17.85;;;20.00;99.90;;;;;;10015564;29;19928;-83
2022/07/26 09:51:57;;;;;;;23.88;17.75;;;20.20;99.90;;;;;;10015012;29;20489;-83
2022/07/26 09:56:59;;;;;;;26.00;19.92;;;20.10;99.90;;;;;;10014912;29;20030;-81
2022/07/26 10:01:59;;;;;;;25.80;19.30;;;20.30;99.90;;;;;;10015423;29;20038;-82
2022/07/26 10:07:01;;;;;;;27.73;20.02;;;20.20;99.90;;;;;;10014852;29;20038;-83
2022/07/26 10:12:06;;;;;;;24.50;17.42;;;20.20;99.90;;;;;;10014600;29;20062;-82
2022/07/26 10:17:28;;;;;;;21.98;15.82;;;20.50;99.90;;;;;;10012061;29;20053;-84
2022/07/26 10:22:29;;;;;;;23.33;16.98;;;20.60;99.90;;;;;;10007592;29;20077;-85
2022/07/26 10:27:39;;;;;;;24.45;17.55;;;20.60;99.90;;;;;;10011688;29;20038;-87
2022/07/26 10:32:42;;;;;;;20.33;15.85;;;20.50;99.90;;;;;;10011985;29;20517;-83
2022/07/26 10:38:01;;;;;;;22.92;16.45;;;20.30;99.90;;;;;;10011773;29;20026;-84
2022/07/26 10:43:16;;;;;;;26.95;19.08;;;20.00;99.90;;;;;;10011514;29;20042;-83
2022/07/26 10:48:18;;;;;;;27.92;19.08;;;19.90;99.90;;;;;;10009972;29;20068;-83
2022/07/26 10:53:25;;;;;;;20.58;15.20;;;19.80;99.90;;;;;;10010862;29;20427;-84
2022/07/26 10:58:26;;;;;;;21.67;14.73;;;19.70;99.90;;;;;;10010761;29;20048;-83
2022/07/26 11:03:42;;;;;;;22.15;15.57;;;19.60;99.90;;;;;;9995560;29;20026;-83
2022/07/26 11:08:45;;;;;;;21.33;15.30;;;19.50;99.90;;;;;;9990116;29;20431;-82
2022/07/26 11:13:45;;;;;;;21.85;15.75;;;19.40;99.90;;;;;;10009299;29;20467;-86
2022/07/26 11:18:46;;;;;;;16.60;11.70;;;19.40;99.90;;;;;;10009132;29;20038;-82
2022/07/26 11:23:49;;;;;;;13.85;10.07;;;19.30;99.90;;;;;;10008853;29;20741;-82
2022/07/26 11:28:56;;;;;;;14.70;10.93;;;19.20;99.90;;;;;;9994181;29;20050;-81
2022/07/26 11:33:57;;;;;;;21.52;13.30;;;19.00;99.90;;;;;;10010288;29;20034;-81
2022/07/26 11:38:59;;;;;;;23.00;14.80;;;18.70;99.90;;;;;;10009979;29;20490;-81
2022/07/26 11:44:00;;;;;;;26.10;15.55;;;18.60;99.90;;;;;;10003372;29;20050;-81
2022/07/26 11:49:01;;;;;;;27.65;17.35;;;18.50;99.90;;;;;;10010256;29;20558;-84
2022/07/26 11:54:03;;;;;;;27.08;17.92;;;18.50;99.90;;;;;;10010739;29;20605;-81
2022/07/26 11:59:04;;;;;;;27.42;17.38;;;18.40;99.90;;;;;;10009156;29;20048;-81
2022/07/26 12:04:16;;;;;;;27.63;17.63;;;18.30;99.90;;;;;;10009477;29;20130;-81
2022/07/26 12:09:50;;;;;;;23.10;13.85;;;18.20;99.90;;;;;;9990999;29;20071;-82
2022/07/26 12:15:03;;;;;;;20.00;11.90;;;18.20;99.90;;;;;;9996041;29;20525;-83
2022/07/26 12:20:16;;;;;;;23.27;14.02;;;18.10;99.90;;;;;;10006732;29;20084;-82
2022/07/26 12:25:27;;;;;;;27.73;15.70;;;18.10;99.90;;;;;;10007176;29;20037;-84
2022/07/26 12:30:34;;;;;;;25.50;15.85;;;18.20;99.90;;;;;;10010034;29;20037;-83
2022/07/26 12:35:35;;;;;;;27.05;15.57;;;18.20;99.90;;;;;;10009866;29;20099;-83
2022/07/26 12:40:40;;;;;;;30.33;18.23;;;18.30;99.90;;;;;;10008744;29;20050;-86
2022/07/26 12:45:42;;;;;;;22.25;13.02;;;18.30;99.90;;;;;;10004679;29;20418;-83
2022/07/26 12:50:42;;;;;;;26.80;16.98;;;18.30;99.90;;;;;;10016154;29;20058;-83
2022/07/26 12:55:43;;;;;;;28.27;19.08;;;18.20;99.90;;;;;;10016068;29;20673;-83
2022/07/26 13:00:44;;;;;;;32.42;18.85;;;18.20;99.90;;;;;;9997080;29;20106;-83
2022/07/26 13:05:45;;;;;;;30.75;19.70;;;18.30;99.90;;;;;;10012108;29;20034;-83
2022/07/26 13:10:45;;;;;;;27.48;15.70;;;18.20;99.90;;;;;;10013149;29;20432;-82
2022/07/26 13:15:46;;;;;;;29.42;17.02;;;18.30;99.90;;;;;;9996228;29;20034;-84
2022/07/26 13:20:47;;;;;;;33.95;18.58;;;18.20;99.90;;;;;;10014437;29;20438;-81
2022/07/26 13:25:48;;;;;;;38.38;21.30;;;18.20;99.90;;;;;;10015947;29;20120;-82
2022/07/26 13:30:49;;;;;;;31.27;20.08;;;18.40;99.90;;;;;;10013828;29;20037;-82
2022/07/26 13:35:49;;;;;;;32.38;21.08;;;18.50;99.90;;;;;;10015229;29;20034;-82
2022/07/26 13:40:50;;;;;;;23.83;16.00;;;18.70;99.90;;;;;;9999222;29;20100;-83
2022/07/26 13:45:50;;;;;;;24.52;16.55;;;18.80;99.90;;;;;;10012899;29;20065;-82
2022/07/26 13:56:49;;;;;;;18.30;12.98;;;19.10;99.90;;;;;;10007824;29;20069;-86
2022/07/26 14:01:50;;;;;;;25.52;15.57;;;19.20;99.90;;;;;;9995472;29;20113;-83
2022/07/26 14:06:52;;;;;;;20.13;13.88;;;19.30;99.90;;;;;;10015201;29;20454;-84
2022/07/26 14:11:53;;;;;;;21.83;14.40;;;19.40;99.90;;;;;;10014882;29;20118;-84
2022/07/26 14:16:53;;;;;;;24.83;15.65;;;19.40;99.90;;;;;;10006672;29;20125;-83
2022/07/26 14:21:54;;;;;;;20.15;12.70;;;19.30;99.90;;;;;;10011944;29;20046;-83
2022/07/26 14:26:55;;;;;;;28.50;17.80;;;19.30;99.90;;;;;;10014895;29;20036;-85
2022/07/26 14:31:55;;;;;;;25.55;14.93;;;19.30;99.90;;;;;;10014243;29;20038;-82
2022/07/26 14:36:56;;;;;;;26.02;17.88;;;19.20;99.90;;;;;;10012795;29;20034;-84
2022/07/26 14:41:57;;;;;;;25.50;18.27;;;19.10;99.90;;;;;;10010816;29;20030;-85
2022/07/26 14:46:57;;;;;;;24.48;15.75;;;19.20;99.90;;;;;;10012357;29;20053;-82
2022/07/26 14:51:59;;;;;;;25.17;17.30;;;19.10;99.90;;;;;;10008938;29;20030;-83
2022/07/26 14:57:00;;;;;;;30.00;18.80;;;19.10;99.90;;;;;;10013092;29;20038;-83
2022/07/26 15:02:01;;;;;;;29.27;19.27;;;19.00;99.90;;;;;;10012820;29;20756;-83
2022/07/26 15:07:01;;;;;;;27.08;18.80;;;19.00;99.90;;;;;;10011916;29;20061;-84
2022/07/26 15:12:02;;;;;;;33.55;21.10;;;19.00;99.90;;;;;;10004030;29;20030;-84
2022/07/26 15:17:03;;;;;;;27.45;17.85;;;19.00;99.90;;;;;;10007699;29;20111;-84
2022/07/26 15:22:03;;;;;;;30.80;18.80;;;19.00;99.90;;;;;;10012542;29;20545;-83
2022/07/26 15:27:04;;;;;;;26.10;17.77;;;19.10;99.90;;;;;;9998679;29;20030;-85
2022/07/26 15:32:06;;;;;;;29.65;20.98;;;19.10;99.90;;;;;;10008341;29;20048;-83
2022/07/26 15:37:06;;;;;;;26.30;18.35;;;19.30;99.90;;;;;;9992573;29;20114;-83
2022/07/26 15:42:07;;;;;;;32.15;19.65;;;19.50;99.90;;;;;;10007463;29;20100;-83
2022/07/26 15:47:07;;;;;;;26.20;15.85;;;19.60;99.90;;;;;;10003650;29;20057;-84
2022/07/26 15:52:10;;;;;;;24.70;16.95;;;19.80;99.90;;;;;;10009681;29;20133;-84
2022/07/26 15:57:10;;;;;;;25.42;17.23;;;19.90;99.90;;;;;;10009294;29;20444;-83
2022/07/26 16:02:12;;;;;;;24.17;16.38;;;20.00;99.90;;;;;;10003367;29;20037;-83
2022/07/26 16:07:13;;;;;;;21.88;16.20;;;20.10;99.90;;;;;;9991911;29;20130;-87
2022/07/26 16:12:13;;;;;;;21.92;15.75;;;20.00;99.90;;;;;;10001400;29;20048;-83
2022/07/26 16:17:14;;;;;;;25.05;17.63;;;19.90;99.90;;;;;;10006088;29;20041;-83
2022/07/26 16:22:15;;;;;;;23.00;16.98;;;19.70;99.90;;;;;;10015420;29;20515;-82
2022/07/26 16:27:16;;;;;;;23.65;16.75;;;19.80;99.90;;;;;;10008835;29;20056;-82
2022/07/26 16:32:17;;;;;;;22.17;15.85;;;19.80;99.90;;;;;;10004735;29;20040;-83
2022/07/26 16:37:17;;;;;;;24.30;16.63;;;19.80;99.90;;;;;;10006228;29;20046;-82
2022/07/26 16:42:18;;;;;;;24.35;17.13;;;19.80;99.90;;;;;;10005782;29;20026;-83
2022/07/26 16:47:18;;;;;;;27.92;19.40;;;19.70;99.90;;;;;;10008372;29;20050;-83
2022/07/26 16:52:19;;;;;;;32.60;20.73;;;19.70;99.90;;;;;;9991284;29;20046;-82
2022/07/26 16:57:20;;;;;;;28.95;20.67;;;19.70;99.90;;;;;;10006547;29;20041;-83
2022/07/26 17:02:20;;;;;;;25.73;17.05;;;19.80;99.90;;;;;;10009558;29;20121;-83
2022/07/26 17:07:21;;;;;;;27.70;20.23;;;19.80;99.90;;;;;;10007487;29;20544;-89
2022/07/26 17:12:22;;;;;;;27.58;20.08;;;19.70;99.90;;;;;;9987054;29;20029;-86
2022/07/26 17:17:23;;;;;;;37.10;23.65;;;19.60;99.90;;;;;;10008072;29;20038;-84
2022/07/26 17:22:24;;;;;;;39.20;24.60;;;19.60;99.90;;;;;;9987187;29;20057;-84
2022/07/26 17:27:25;;;;;;;34.75;24.30;;;19.50;99.90;;;;;;9991104;29;20033;-83
2022/07/26 17:32:27;;;;;;;40.63;24.17;;;19.40;99.90;;;;;;9992421;29;20124;-84
2022/07/26 17:37:33;;;;;;;47.55;29.15;;;19.40;99.90;;;;;;10000475;29;20376;-84
2022/07/26 17:42:41;;;;;;;49.28;28.92;;;19.40;99.90;;;;;;10008011;29;20053;-86
2022/07/26 17:47:43;;;;;;;42.13;26.92;;;19.50;99.90;;;;;;9980422;29;20057;-83
2022/07/26 17:52:43;;;;;;;44.05;27.63;;;19.40;99.90;;;;;;10014022;29;20029;-84
2022/07/26 17:57:44;;;;;;;39.28;27.42;;;19.50;99.90;;;;;;9997529;29;20773;-83
2022/07/26 18:02:45;;;;;;;39.15;26.48;;;19.50;99.90;;;;;;10012311;29;20026;-84
2022/07/26 18:07:47;;;;;;;38.13;25.00;;;19.50;99.90;;;;;;9996226;29;20094;-83
2022/07/26 18:12:47;;;;;;;37.97;25.00;;;19.40;99.90;;;;;;10011904;29;20022;-82
2022/07/26 18:17:48;;;;;;;43.65;25.92;;;19.30;99.90;;;;;;10012524;29;20045;-83
2022/07/26 18:22:49;;;;;;;39.20;24.13;;;19.30;99.90;;;;;;10013652;29;20026;-82
2022/07/26 18:27:50;;;;;;;41.53;24.88;;;19.20;99.90;;;;;;10007717;29;20037;-83
2022/07/26 18:32:50;;;;;;;33.15;22.50;;;19.10;99.90;;;;;;10011256;29;20038;-82
2022/07/26 18:37:52;;;;;;;35.10;22.08;;;18.90;99.90;;;;;;10009565;29;20038;-83
2022/07/26 18:42:53;;;;;;;36.15;24.02;;;18.80;99.90;;;;;;10005600;29;20474;-83
2022/07/26 18:47:54;;;;;;;36.58;24.95;;;18.70;99.90;;;;;;9993480;29;20058;-82
2022/07/26 18:52:54;;;;;;;37.55;25.13;;;18.50;99.90;;;;;;10010104;29;20682;-82
2022/07/26 18:57:55;;;;;;;49.10;27.25;;;18.40;99.90;;;;;;10007412;29;20134;-81
2022/07/26 19:02:56;;;;;;;63.83;30.90;;;18.20;99.90;;;;;;10004949;29;20132;-82
2022/07/26 19:07:57;;;;;;;61.33;30.60;;;18.10;99.90;;;;;;10009208;29;20026;-81
2022/07/26 19:12:57;;;;;;;64.43;31.85;;;18.00;99.90;;;;;;10008083;29;20078;-83
2022/07/26 19:18:06;;;;;;;54.17;30.88;;;17.80;99.90;;;;;;10008136;29;20080;-79
2022/07/26 19:23:11;;;;;;;51.97;30.73;;;17.80;99.90;;;;;;10006077;29;20077;-81
2022/07/26 19:28:12;;;;;;;56.50;30.83;;;17.70;99.90;;;;;;10006490;29;20054;-82
2022/07/26 19:33:13;;;;;;;46.72;29.25;;;17.60;99.90;;;;;;10020453;29;20679;-82
2022/07/26 19:38:14;;;;;;;54.15;30.40;;;17.50;99.90;;;;;;10014663;29;20041;-84
2022/07/26 19:43:14;;;;;;;42.83;26.60;;;17.30;99.90;;;;;;10030513;29;20074;-81
2022/07/26 19:48:15;;;;;;;49.15;27.02;;;17.20;99.90;;;;;;10022078;29;20041;-82
2022/07/26 19:53:16;;;;;;;52.17;29.83;;;17.10;99.90;;;;;;10026725;29;20046;-78
2022/07/26 19:58:18;;;;;;;58.33;31.73;;;17.00;99.90;;;;;;10007773;29;20449;-80
2022/07/26 20:03:18;;;;;;;46.80;28.77;;;17.00;99.90;;;;;;10008020;29;20046;-81
2022/07/26 20:08:19;;;;;;;53.20;29.55;;;16.90;99.90;;;;;;10008283;29;20364;-81
2022/07/26 20:13:19;;;;;;;45.63;28.05;;;16.80;99.90;;;;;;10005515;29;20068;-81
2022/07/26 20:18:23;;;;;;;46.78;27.90;;;16.80;99.90;;;;;;10008838;29;20133;-81
2022/07/26 20:23:26;;;;;;;47.88;27.48;;;16.80;99.90;;;;;;9992817;29;20041;-81
2022/07/26 20:28:27;;;;;;;41.33;25.85;;;16.70;99.90;;;;;;10006657;29;20120;-81
2022/07/26 20:33:28;;;;;;;47.30;27.05;;;16.60;99.90;;;;;;10008717;29;20132;-81
2022/07/26 20:38:29;;;;;;;53.42;29.42;;;16.40;99.90;;;;;;9990641;29;20054;-81
2022/07/26 20:43:29;;;;;;;46.53;26.48;;;16.10;99.90;;;;;;10006990;29;20134;-81
2022/07/26 20:48:30;;;;;;;64.45;32.05;;;15.90;99.90;;;;;;10008648;29;20045;-81
2022/07/26 20:53:32;;;;;;;70.63;36.97;;;15.80;99.90;;;;;;9992361;29;20077;-82
2022/07/26 20:58:32;;;;;;;46.10;28.55;;;15.80;99.90;;;;;;10007232;29;20034;-81
2022/07/26 21:03:33;;;;;;;65.07;35.03;;;15.70;99.90;;;;;;10009149;29;20034;-81
2022/07/26 21:08:34;;;;;;;83.32;40.95;;;15.70;99.90;;;;;;9992443;29;20129;-81
2022/07/26 21:13:35;;;;;;;98.30;41.58;;;15.60;99.90;;;;;;10013724;29;20037;-81
2022/07/26 21:18:37;;;;;;;88.45;42.05;;;15.50;99.90;;;;;;10015526;29;20068;-81
2022/07/26 21:23:37;;;;;;;61.05;34.42;;;15.40;99.90;;;;;;10015953;29;20041;-81
2022/07/26 21:28:38;;;;;;;56.55;31.48;;;15.40;99.90;;;;;;10014853;29;20370;-82
2022/07/26 21:33:38;;;;;;;70.95;35.42;;;15.40;99.90;;;;;;10015107;29;20132;-81
2022/07/26 21:38:40;;;;;;;91.35;40.47;;;15.50;99.90;;;;;;10015809;29;20120;-82
2022/07/26 21:43:40;;;;;;;73.25;38.03;;;15.40;99.90;;;;;;10013720;29;20061;-81
2022/07/26 21:48:41;;;;;;;69.18;37.00;;;15.30;99.90;;;;;;10014978;29;20113;-81
2022/07/26 21:53:41;;;;;;;86.55;39.53;;;15.20;99.90;;;;;;10015828;29;20034;-81
2022/07/26 21:58:42;;;;;;;81.43;40.95;;;15.10;99.90;;;;;;10013017;29;20041;-82
2022/07/26 22:03:43;;;;;;;84.07;40.17;;;15.10;99.90;;;;;;10014070;29;20034;-81
2022/07/26 22:08:43;;;;;;;92.53;43.58;;;15.00;99.90;;;;;;10014960;29;20026;-81
2022/07/26 22:13:44;;;;;;;114.40;48.58;;;15.00;99.90;;;;;;10012246;29;20493;-81
2022/07/26 22:18:44;;;;;;;106.47;46.58;;;15.00;99.90;;;;;;10011618;29;20125;-81
2022/07/26 22:23:45;;;;;;;125.28;51.53;;;14.90;99.90;;;;;;9995208;29;20383;-81
2022/07/26 22:28:46;;;;;;;58.58;32.20;;;14.90;99.90;;;;;;10011235;29;20038;-82
2022/07/26 22:33:46;;;;;;;160.00;54.22;;;14.90;99.90;;;;;;10012836;29;20026;-82
2022/07/26 22:38:47;;;;;;;64.20;35.88;;;15.00;99.90;;;;;;10013133;29;20045;-81
2022/07/26 22:43:49;;;;;;;102.63;47.70;;;15.00;99.90;;;;;;10006462;29;20073;-81
2022/07/26 22:48:49;;;;;;;81.30;39.90;;;15.00;99.90;;;;;;10011287;29;20045;-82
2022/07/26 22:53:50;;;;;;;91.70;42.42;;;14.90;99.90;;;;;;10012888;29;20037;-81
2022/07/26 22:58:50;;;;;;;90.25;41.67;;;14.90;99.90;;;;;;10011086;29;20048;-81
2022/07/26 23:03:51;;;;;;;49.60;29.23;;;14.80;99.90;;;;;;10012377;29;20109;-81
2022/07/26 23:08:51;;;;;;;82.60;36.92;;;14.80;99.90;;;;;;10011838;29;20586;-81
2022/07/26 23:13:52;;;;;;;125.20;48.05;;;14.70;99.90;;;;;;10011470;29;20049;-81
2022/07/26 23:18:53;;;;;;;77.50;37.35;;;14.60;99.90;;;;;;10012254;29;20102;-81
2022/07/26 23:23:54;;;;;;;78.88;39.78;;;14.40;99.90;;;;;;10011355;29;20483;-81
2022/07/26 23:28:54;;;;;;;107.47;46.38;;;14.40;99.90;;;;;;10011584;29;20037;-81
2022/07/26 23:33:55;;;;;;;118.13;49.00;;;14.40;99.90;;;;;;10011223;29;20042;-82
2022/07/26 23:38:57;;;;;;;163.68;60.03;;;14.30;99.90;;;;;;9994043;29;20515;-82
2022/07/26 23:43:58;;;;;;;132.95;52.10;;;14.30;99.90;;;;;;10009864;29;20057;-83
2022/07/26 23:48:58;;;;;;;126.95;52.38;;;14.30;99.90;;;;;;10010915;29;20034;-81
2022/07/26 23:53:59;;;;;;;80.65;41.53;;;14.20;99.90;;;;;;10010757;29;20042;-81
2022/07/26 23:58:59;;;;;;;102.32;46.08;;;14.20;99.90;;;;;;10008411;29;20062;-81
